Latest Weather Observations for Brisbane Airport

IDQ60901

Issued at 10:01 am EST Monday 20 November 2017 (issued every 10 minutes, with the page automatically refreshed every 10 minutes)

About weather observations | Map of Brisbane area stations | Latest observations for Brisbane area | Other Formats
Station Details ID: 040842 Name: BRISBANE AERO Lat: -27.39 Lon: 153.13 Height: 4.51 m
Data from the previous 72 hours. | See also: Recent months at Brisbane Airport
Date/Time
EST
Temp
°C
App
Temp
°C
Dew
Point
°C
Rel
Hum
%
Delta-T
°C
Wind Press
QNH
hPa
Press
MSL
hPa
Rain since
9am
mm
Dir  Spd
km/h
Gust
km/h
Spd
kts
Gust
kts
20/09:30am 23.8 21.7 15.3 59 5.1 ESE 20 32 11 17 1019.9 1019.8 0.0
20/09:00am 22.4 21.1 14.8 62 4.5 SE 15 22 8 12 1019.9 1019.8 5.0
20/08:30am 21.6 20.6 15.6 68 3.6 S 15 22 8 12 1019.8 1019.7 5.0
20/08:00am 20.2 19.6 15.6 75 2.7 S 13 19 7 10 1019.9 1019.8 5.0
20/07:30am 19.1 17.6 15.4 79 2.2 S 17 28 9 15 1019.9 1019.8 5.0
20/07:00am 19.6 18.0 15.0 75 2.7 S 17 26 9 14 1019.6 1019.5 5.0
20/06:30am 18.3 18.5 15.8 85 1.5 S 9 13 5 7 1019.2 1019.1 5.0
20/06:00am 18.0 18.1 15.4 85 1.5 S 9 15 5 8 1019.0 1018.9 5.0
20/05:30am 17.5 17.1 15.1 86 1.4 SSW 11 15 6 8 1018.7 1018.6 5.0
20/05:00am 17.4 16.7 15.3 87 1.2 SSW 13 15 7 8 1018.4 1018.3 5.0
20/04:30am 17.2 18.6 15.3 88 1.1 ESE 2 7 1 4 1018.4 1018.3 5.0
20/04:00am 17.1 16.6 15.0 87 1.2 S 11 17 6 9 1017.8 1017.8 5.0
20/03:30am 16.8 15.5 14.7 87 1.2 SSW 15 24 8 13 1017.7 1017.7 4.6
20/03:00am 17.4 16.9 14.8 85 1.5 S 11 19 6 10 1017.6 1017.6 4.6
20/02:30am 17.7 17.2 14.9 84 1.6 S 11 17 6 9 1017.7 1017.7 4.6
20/02:00am 17.5 17.4 14.9 85 1.5 S 9 13 5 7 1017.6 1017.6 4.6
20/01:30am 16.9 16.4 14.8 87 1.2 SSW 11 15 6 8 1017.8 1017.8 4.6
20/01:00am 17.2 17.0 14.8 86 1.4 SSW 9 13 5 7 1018.1 1018.0 4.6
20/12:30am 18.0 17.9 14.9 82 1.8 S 9 15 5 8 1018.1 1018.0 4.6
20/12:00am 18.3 17.7 14.7 79 2.1 S 11 17 6 9 1018.4 1018.3 4.6
 
Date/Time
EST
Temp
°C
App
Temp
°C
Dew
Point
°C
Rel
Hum
%
Delta-T
°C
Wind Press
QNH
hPa
Press
MSL
hPa
Rain since
9am
mm
Dir  Spd
km/h
Gust
km/h
Spd
kts
Gust
kts
19/11:30pm 18.4 17.9 14.8 79 2.1 S 11 17 6 9 1018.6 1018.5 4.6
19/11:00pm 18.3 18.2 14.9 80 2.0 SSW 9 13 5 7 1019.0 1018.9 4.6
19/10:30pm 18.5 18.2 14.5 77 2.3 S 9 15 5 8 1019.0 1018.9 4.6
19/10:00pm 18.6 18.4 14.6 77 2.3 S 9 13 5 7 1019.2 1019.1 4.6
19/09:30pm 18.8 18.5 14.5 76 2.5 SSW 9 11 5 6 1019.5 1019.4 4.6
19/09:00pm 18.5 18.4 14.9 79 2.1 SSW 9 11 5 6 1019.6 1019.5 4.6
19/08:30pm 19.6 19.9 15.0 75 2.7 S 7 9 4 5 1019.4 1019.3 4.6
19/08:00pm 20.3 20.2 15.0 71 3.1 SE 9 15 5 8 1019.2 1019.1 4.6
19/07:30pm 20.5 18.8 14.7 69 3.4 ESE 17 28 9 15 1018.9 1018.8 4.4
19/07:00pm 20.9 20.1 14.0 64 4.0 SE 11 20 6 11 1018.6 1018.5 4.4
19/06:30pm 20.8 20.1 14.3 66 3.8 SSE 11 15 6 8 1018.6 1018.5 4.4
19/06:00pm 20.8 19.8 14.6 67 3.6 SE 13 20 7 11 1018.2 1018.1 4.4
19/05:30pm 20.9 20.7 14.6 67 3.7 SSE 9 15 5 8 1017.6 1017.6 4.4
19/05:00pm 21.2 19.9 14.9 67 3.7 SSE 15 26 8 14 1017.3 1017.3 4.4
19/04:30pm 21.5 20.6 14.9 66 3.9 ESE 13 20 7 11 1017.0 1017.0 4.4
19/04:00pm 22.7 20.8 14.3 59 4.9 ESE 17 30 9 16 1017.0 1017.0 4.4
19/03:30pm 22.3 20.7 14.9 63 4.4 ESE 17 30 9 16 1017.1 1017.1 4.4
19/03:00pm 22.2 20.2 14.9 63 4.3 ESE 19 32 10 17 1017.1 1017.1 4.4
19/02:30pm 22.3 21.1 16.2 68 3.7 ESE 17 33 9 18 1017.4 1017.4 4.4
19/02:00pm 21.9 20.1 15.5 67 3.8 E 19 32 10 17 1017.7 1017.7 4.4
19/01:30pm 20.2 18.9 16.7 80 2.1 E 19 30 10 16 1018.2 1018.1 4.2
19/01:00pm 22.4 21.1 16.8 70 3.4 ESE 19 32 10 17 1018.1 1018.0 3.8
19/12:30pm 21.5 20.6 16.9 75 2.8 ESE 17 28 9 15 1018.1 1018.0 3.8
19/12:00pm 20.6 21.8 18.2 86 1.5 SSW 9 15 5 8 1018.2 1018.1 3.8
19/11:30am 19.4 20.2 18.1 92 0.8 SSW 11 15 6 8 1018.6 1018.5 3.8
19/11:00am 19.0 19.7 17.0 88 1.2 S 9 11 5 6 1019.0 1018.9 3.2
19/10:48am 18.3 19.4 16.5 89 1.1 S 6 9 3 5 1018.9 1018.8 3.0
19/10:30am 17.9 16.7 16.0 89 1.1 SE 17 30 9 16 1019.0 1018.9 2.4
19/10:24am 18.6 17.7 16.9 90 1.0 SSE 17 28 9 15 1018.9 1018.8 0.8
19/10:06am 20.4 20.4 18.1 87 1.4 S 15 22 8 12 1018.6 1018.5 0.4
19/10:00am 20.3 20.5 17.7 85 1.6 SSE 13 22 7 12 1018.6 1018.5 0.2
19/09:30am 21.8 22.0 16.7 73 3.1 N 11 15 6 8 1018.4 1018.3 0.0
19/09:13am 20.7 19.5 16.2 75 2.7 NE 17 20 9 11 1018.4 1018.3 0.0
19/09:00am 21.3 19.5 15.4 69 3.5 E 19 30 10 16 1018.3 1018.2 9.8
19/08:30am 23.4 22.9 15.0 59 5.0 ESE 11 17 6 9 1018.0 1017.9 9.6
19/08:00am 23.0 21.9 14.3 58 5.1 SE 13 19 7 10 1017.6 1017.6 9.6
19/07:30am 21.2 21.3 16.6 75 2.8 S 11 15 6 8 1017.5 1017.5 9.6
19/07:00am 19.7 20.3 16.7 83 1.8 SSW 9 13 5 7 1017.1 1017.1 9.6
19/06:30am 19.0 19.2 16.7 86 1.4 SSW 11 15 6 8 1016.6 1016.6 9.6
19/06:00am 17.5 17.5 16.3 93 0.7 SSW 11 13 6 7 1016.3 1016.3 9.6
19/05:30am 16.9 17.1 15.7 93 0.7 SSW 9 13 5 7 1016.1 1016.1 9.6
19/05:00am 16.8 17.3 15.6 93 0.7 SSE 7 11 4 6 1015.8 1015.8 9.6
19/04:30am 16.7 16.5 15.7 94 0.6 S 11 13 6 7 1015.5 1015.5 9.6
19/04:00am 16.7 16.1 15.7 94 0.6 SSW 13 17 7 9 1015.4 1015.4 9.6
19/03:30am 16.3 15.4 15.8 97 0.3 SSW 15 19 8 10 1015.4 1015.4 9.6
19/03:00am 16.2 15.6 15.7 97 0.3 SSW 13 17 7 9 1015.4 1015.4 9.6
19/02:30am 16.1 15.6 15.8 98 0.2 SSW 13 17 7 9 1015.5 1015.5 9.6
19/02:00am 15.9 15.3 15.6 98 0.2 SSW 13 17 7 9 1015.6 1015.6 9.6
19/01:30am 15.6 14.9 15.3 98 0.2 SSW 13 15 7 8 1015.7 1015.7 9.6
19/01:00am 15.9 15.2 15.4 97 0.3 SSW 13 15 7 8 1015.8 1015.8 9.6
19/12:30am 16.8 16.7 16.1 96 0.4 SSW 11 15 6 8 1016.1 1016.1 9.6
19/12:00am 16.8 16.0 16.1 96 0.4 SSW 15 19 8 10 1016.6 1016.6 9.6
 
Date/Time
EST
Temp
°C
App
Temp
°C
Dew
Point
°C
Rel
Hum
%
Delta-T
°C
Wind Press
QNH
hPa
Press
MSL
hPa
Rain since
9am
mm
Dir  Spd
km/h
Gust
km/h
Spd
kts
Gust
kts
18/11:30pm 16.7 16.3 16.2 97 0.3 SSW 13 17 7 9 1017.1 1017.1 9.6
18/11:00pm 17.2 16.9 16.5 96 0.4 SSW 13 17 7 9 1017.3 1017.3 9.6
18/10:30pm 16.9 16.1 16.2 96 0.4 SSW 15 19 8 10 1017.6 1017.6 9.6
18/10:00pm 16.6 16.2 16.1 97 0.3 SSW 13 15 7 8 1017.7 1017.7 9.6
18/09:30pm 16.8 15.9 15.9 94 0.5 SSW 15 17 8 9 1017.6 1017.6 9.6
18/09:00pm 17.8 17.9 16.6 93 0.7 SSW 11 15 6 8 1017.5 1017.5 9.6
18/08:30pm 17.9 17.7 16.6 92 0.8 SSW 13 19 7 10 1017.8 1017.8 9.6
18/08:00pm 17.9 17.5 17.1 95 0.5 SSW 15 19 8 10 1018.0 1017.9 9.6
18/07:30pm 18.1 17.8 17.4 96 0.4 SSW 15 20 8 11 1017.7 1017.7 9.6
18/07:00pm 18.2 17.9 17.4 95 0.5 SSW 15 20 8 11 1017.4 1017.4 9.6
18/06:30pm 18.4 18.6 17.6 95 0.5 SSW 13 15 7 8 1017.0 1017.0 9.6
18/06:00pm 18.6 18.8 17.6 94 0.6 SW 13 17 7 9 1016.7 1016.7 9.6
18/05:30pm 18.7 18.5 17.7 94 0.6 SSW 15 19 8 10 1016.4 1016.4 9.6
18/05:00pm 18.6 18.0 17.6 94 0.6 SW 17 19 9 10 1016.0 1016.0 9.4
18/04:30pm 19.0 20.1 17.9 93 0.7 SSW 9 11 5 6 1015.9 1015.9 9.0
18/04:00pm 19.3 20.3 17.8 91 0.9 WSW 9 9 5 5 1015.8 1015.8 8.6
18/03:30pm 19.6 20.9 17.6 88 1.2 W 7 11 4 6 1015.8 1015.8 8.6
18/03:00pm 19.4 20.0 17.6 89 1.1 NW 11 15 6 8 1015.8 1015.8 8.6
18/02:30pm 19.4 18.7 17.4 88 1.2 N 17 20 9 11 1015.8 1015.8 8.6
18/02:00pm 18.8 19.6 17.3 91 0.9 NNE 9 15 5 8 1016.0 1016.0 8.4
18/01:48pm 18.3 18.2 16.1 87 1.3 ENE 11 17 6 9 1016.3 1016.3 8.0
18/01:30pm 18.3 19.2 16.6 90 1.0 S 7 9 4 5 1016.5 1016.5 5.0
18/01:00pm 19.1 21.3 17.5 90 1.0 E 2 7 1 4 1016.7 1016.7 3.8
18/12:40pm 19.1 20.0 17.5 90 1.0 WNW 9 15 5 8 1016.8 1016.8 1.4
18/12:30pm 19.4 19.5 17.4 88 1.2 NNW 13 30 7 16 1016.7 1016.7 0.4
18/12:00pm 19.6 17.5 18.0 90 1.0 NNW 26 32 14 17 1016.3 1016.3 0.4
18/11:30am 20.3 18.5 17.9 86 1.5 N 24 30 13 16 1016.7 1016.7 0.4
18/11:00am 20.4 18.2 17.8 85 1.6 N 26 32 14 17 1016.8 1016.8 0.4
18/10:30am 20.6 18.1 17.0 80 2.2 N 26 32 14 17 1017.0 1017.0 0.4
18/10:00am 20.3 20.0 18.2 88 1.3 N 17 28 9 15 1017.0 1017.0 0.4
18/09:30am 22.0 20.1 15.1 65 4.1 NNE 19 30 10 16 1016.8 1016.8 0.0
18/09:00am 20.2 19.0 17.6 85 1.6 NNE 20 28 11 15 1017.1 1017.1 3.0
18/08:30am 21.8 22.4 16.9 73 3.0 NE 9 13 5 7 1017.2 1017.2 3.0
18/08:00am 21.0 20.6 17.1 78 2.4 NNW 15 19 8 10 1017.1 1017.1 3.0
18/07:30am 20.5 18.4 17.2 81 2.0 N 24 32 13 17 1017.3 1017.3 3.0
18/07:00am 22.1 20.4 14.8 63 4.3 NE 17 22 9 12 1017.1 1017.1 3.0
18/06:30am 21.7 20.1 14.9 65 4.0 NE 17 24 9 13 1016.9 1016.9 3.0
18/06:00am 21.3 20.1 15.0 67 3.7 ENE 15 22 8 12 1016.7 1016.7 3.0
18/05:30am 20.8 20.0 16.0 74 2.9 ENE 15 19 8 10 1016.5 1016.5 3.0
18/05:00am 19.9 20.7 17.3 85 1.6 ENE 9 15 5 8 1016.2 1016.2 3.0
18/04:30am 19.2 18.6 16.7 85 1.5 ENE 15 19 8 10 1016.0 1016.0 2.6
18/04:00am 21.0 20.2 17.1 78 2.4 ENE 17 30 9 16 1016.0 1016.0 0.0
18/03:30am 21.9 21.0 14.8 64 4.2 ENE 13 17 7 9 1015.8 1015.8 0.0
18/03:00am 21.9 22.1 15.7 68 3.7 ENE 9 13 5 7 1015.8 1015.8 0.0
18/02:30am 21.6 21.1 15.0 66 3.9 ENE 11 15 6 8 1015.7 1015.7 0.0
18/02:00am 21.8 20.8 14.7 64 4.2 ENE 13 19 7 10 1015.7 1015.7 0.0
18/01:30am 21.6 21.1 15.0 66 3.9 NE 11 15 6 8 1015.8 1015.8 0.0
18/01:00am 21.7 20.8 14.9 65 4.0 ENE 13 19 7 10 1016.0 1016.0 0.0
18/12:30am 21.6 20.7 14.8 65 4.0 ENE 13 19 7 10 1016.3 1016.3 0.0
18/12:00am 21.7 20.5 14.1 62 4.4 ENE 13 19 7 10 1016.8 1016.8 0.0
 
Date/Time
EST
Temp
°C
App
Temp
°C
Dew
Point
°C
Rel
Hum
%
Delta-T
°C
Wind Press
QNH
hPa
Press
MSL
hPa
Rain since
9am
mm
Dir  Spd
km/h
Gust
km/h
Spd
kts
Gust
kts
17/11:30pm 21.6 20.9 14.4 63 4.2 ENE 11 17 6 9 1017.0 1017.0 0.0
17/11:00pm 21.8 20.9 13.7 60 4.7 ENE 11 17 6 9 1017.4 1017.4 0.0
17/10:30pm 21.7 20.5 14.1 62 4.4 ENE 13 19 7 10 1017.6 1017.6 0.0
17/10:00pm 22.0 20.6 13.5 58 4.9 ENE 13 19 7 10 1017.7 1017.7 0.0
17/09:30pm 22.0 20.4 13.9 60 4.7 NE 15 22 8 12 1017.8 1017.8 0.0
17/09:00pm 22.2 20.5 13.5 57 5.0 ENE 15 24 8 13 1017.4 1017.4 0.0
17/08:30pm 22.1 20.8 13.6 58 4.9 ENE 13 19 7 10 1017.5 1017.5 0.0
17/08:00pm 22.1 20.5 13.8 59 4.8 ENE 15 26 8 14 1017.1 1017.1 0.0
17/07:30pm 22.0 20.8 14.1 61 4.6 ENE 13 22 7 12 1017.0 1017.0 0.0
17/07:00pm 22.1 20.9 14.0 60 4.7 ENE 13 24 7 13 1016.8 1016.8 0.0
17/06:30pm 22.2 20.8 13.5 57 5.0 E 13 22 7 12 1017.0 1017.0 0.0
17/06:00pm 22.3 20.5 13.3 56 5.2 ENE 15 24 8 13 1016.3 1016.3 0.0
17/05:30pm 22.9 20.4 13.4 55 5.5 ENE 19 28 10 15 1016.1 1016.1 0.0
17/05:00pm 23.3 20.6 12.8 51 6.0 ENE 19 30 10 16 1016.0 1016.0 0.0
17/04:30pm 23.8 21.7 13.7 53 5.9 ENE 17 28 9 15 1016.0 1016.0 0.0
17/04:00pm 24.3 21.6 13.5 51 6.3 ENE 20 30 11 16 1016.0 1016.0 0.0
17/03:30pm 23.8 20.9 12.8 50 6.3 ENE 20 30 11 16 1016.2 1016.2 0.0
17/03:00pm 24.1 21.7 14.5 55 5.7 ENE 20 30 11 16 1016.7 1016.7 0.0
17/02:30pm 25.2 23.0 14.4 51 6.4 ENE 19 26 10 14 1016.9 1016.9 0.0
17/02:00pm 24.6 22.0 11.9 45 7.2 ENE 17 26 9 14 1017.3 1017.3 0.0
17/01:30pm 26.3 24.1 13.3 44 7.6 ENE 17 26 9 14 1017.5 1017.5 0.0
17/01:00pm 25.9 23.1 12.6 43 7.7 ENE 19 28 10 15 1017.7 1017.7 0.0
17/12:30pm 25.1 23.0 13.5 48 6.8 ENE 17 26 9 14 1017.7 1017.7 0.0
17/12:00pm 25.3 21.9 10.6 39 8.2 ENE 19 30 10 16 1018.1 1018.0 0.0
17/11:30am 25.0 21.8 11.3 42 7.7 NE 19 26 10 14 1018.4 1018.3 0.0
17/11:00am 25.4 22.2 11.4 41 7.9 ENE 19 28 10 15 1018.5 1018.4 0.0
17/10:30am 24.8 22.6 13.3 48 6.7 ENE 17 28 9 15 1018.8 1018.7 0.0

Latest Capital City Observations: Canberra | Sydney | Melbourne | Brisbane | Adelaide | Perth | Hobart | Darwin

Other Formats:

Comma delimited format used in spreadsheet applications
http://www.bom.gov.au/fwo/IDQ60901/IDQ60901.94578.axf

JavaScript Object Notation format (JSON) in row-major order
http://www.bom.gov.au/fwo/IDQ60901/IDQ60901.94578.json